Belcourt, Canada
Current Conditions -  °F | °C
As of 2:00 PM on Sunday 21 Dec 2014 (Local Time) from CYVO Reporting Station
Broken Clouds Broken Clouds  
Wind Chill:   Ceiling: 8000
Heat Index: 16°   Visibility: 15mi
Dew Point: 14°   Wind: 6mph
Humidity: 93%   Direction: 150°SSE
Pressure: 30.21"   Gusts: NA
Location:  48.4°N, 77.35°W
Report Text: CYVO 211900Z 15005KT 15SM BKN080 BKN280 M09/M10 A3021 RMK AC6CI1 SLP267
Loading
Personal Weather Stations






























Interactive Weather Map New forecast layout! Learn more

10-Day Weather Forecast

Advertisements
Track Severe Weather on mobile